Terminal Aerodrome Forecast
Issued by NWS

Home | Current Version | Previous Version | Graphics & Text | Print | Product List | Glossary On
Versions: 1 2 3 4 5 6 7 8 9 10 11 12 13 14 15 16 17 18 19 20 21 22 23 24 25
000
FTUS43 KMPX 281120
TAFRWF
TAF
KRWF 281120Z 2812/2912 17007KT P6SM VCSH FEW009 OVC100
      TEMPO 2813/2815 6SM -SHRA SCT008 BKN016
     FM281600 08009KT P6SM SCT010 OVC025
     FM282000 06008KT P6SM SCT020 BKN050
     FM290000 09004KT P6SM BKN150
      TEMPO 2908/2911 6SM BR=

USA.gov is the U.S. government's official web portal to all federal, state and local government web resources and services.